Capitán FAP Renán Elías Olivera International Airport
SPSO : rendu visible

Aérodrome :











RETROUVEZ-NOUS SUR...

 
LOGIN :

S'inscrire | Disclaimer

   EN    FR    IT 

 









Légende :    VFR   VFR Marginal   IFR   IFR Intensif   IFR Très Intensif
Visi : 
Plafond : 
>= 8 km
>= 3000ft
5 à 8 km
1000 à 3000 ft
1500m à 5 km
500 à 1000 ft
800 à 1500m
200 à 500 ft
< 800m
< 200 ft
Symboles :   Orages  Brouillard  Fortes neiges  Fortes précipitations  Vent > 20 kt






- Altitude de l'aérodrome : 39 ft
- Code IATA : PIO


SPSO - Capitán FAP Renán Elías Olivera International

DERNIER METAR :
  • 011200Z 22003KT 9999 OVC110 22/18 Q1012 RMK TN21.6 BIRD HAZARD RWY 22/04 PP000

METARs EXPIRÉS :
  • 011100Z 18003KT 8000 22/18 Q1011 RMK BKN180 PP000
  • 011000Z 22009KT 8000 NSC 22/19 Q1011 RMK BKN180 PP000

TAF SPSO
Valide du 01 à 12h jusqu'au 02 à 12h UTC


011100Z 0112/0212 19005KT 8000 NSC TX25/0119Z TN20/0211Z
TEMPO 0112/0113 4500 BR
BECMG 0114/0116 29010KT
BECMG 0119/0121 22012KT
FM020500 19005KT 9999 FEW012



MET'MAP, la Météo Aéronautique d'un coup d'oeil ! - Copyright ORBIFLY Décembre 2007 - Disclaimer

ORBIFLY MET'MAP TEAM :

Programmation & Développement : Alexandra Zaïnal
Sur une idée originale de : Baudouin d'Aumeries
Assistance à la programmation : Marc-Olivier Méhu
Soutien technique & logistique : Manuel Goepfert

Contact : metmap@orbifly.com




SOURCES & CREDITS :

   NOAA       Earth
Advisory